sensor_id;sensor_type;location;lat;lon;timestamp;pressure;altitude;pressure_sealevel;temperature;humidity
34237;BME280;20501;45.956;13.632;2024-01-25T00:00:17;101496.50;;;6.09;86.24
34237;BME280;20501;45.956;13.632;2024-01-25T00:02:42;101481.78;;;6.00;86.51
34237;BME280;20501;45.956;13.632;2024-01-25T00:05:08;101457.88;;;6.12;86.17
34237;BME280;20501;45.956;13.632;2024-01-25T00:07:33;101466.44;;;6.18;85.39
34237;BME280;20501;45.956;13.632;2024-01-25T00:09:59;101461.94;;;6.19;85.72
34237;BME280;20501;45.956;13.632;2024-01-25T00:12:24;101438.72;;;6.18;85.81
34237;BME280;20501;45.956;13.632;2024-01-25T00:14:50;101428.19;;;6.15;85.94
34237;BME280;20501;45.956;13.632;2024-01-25T00:17:16;101413.78;;;6.46;84.19
34237;BME280;20501;45.956;13.632;2024-01-25T00:19:41;101424.03;;;6.40;84.45
34237;BME280;20501;45.956;13.632;2024-01-25T00:22:07;101418.31;;;6.46;84.25
34237;BME280;20501;45.956;13.632;2024-01-25T00:24:33;101413.22;;;6.56;83.95
34237;BME280;20501;45.956;13.632;2024-01-25T00:26:58;101415.91;;;6.41;84.65
34237;BME280;20501;45.956;13.632;2024-01-25T00:29:24;101421.13;;;6.73;83.32
34237;BME280;20501;45.956;13.632;2024-01-25T00:31:49;101420.16;;;6.60;83.78
34237;BME280;20501;45.956;13.632;2024-01-25T00:34:15;101413.97;;;6.43;84.71
34237;BME280;20501;45.956;13.632;2024-01-25T00:36:41;101426.75;;;6.54;84.54
34237;BME280;20501;45.956;13.632;2024-01-25T00:39:07;101436.66;;;6.38;85.09
34237;BME280;20501;45.956;13.632;2024-01-25T00:41:34;101445.25;;;6.14;86.10
34237;BME280;20501;45.956;13.632;2024-01-25T00:44:00;101443.63;;;5.63;89.24
34237;BME280;20501;45.956;13.632;2024-01-25T00:46:25;101468.94;;;5.89;88.39
34237;BME280;20501;45.956;13.632;2024-01-25T00:48:51;101437.22;;;5.82;88.70
34237;BME280;20501;45.956;13.632;2024-01-25T00:51:21;101429.75;;;5.87;88.83
34237;BME280;20501;45.956;13.632;2024-01-25T00:53:48;101477.63;;;6.11;87.13
34237;BME280;20501;45.956;13.632;2024-01-25T00:56:13;101442.22;;;6.04;87.35
34237;BME280;20501;45.956;13.632;2024-01-25T00:58:39;101399.72;;;5.96;87.74
34237;BME280;20501;45.956;13.632;2024-01-25T01:01:05;101432.38;;;6.04;87.27
34237;BME280;20501;45.956;13.632;2024-01-25T01:03:31;101449.06;;;6.10;86.51
34237;BME280;20501;45.956;13.632;2024-01-25T01:05:57;101424.22;;;5.90;87.46
34237;BME280;20501;45.956;13.632;2024-01-25T01:08:23;101425.28;;;5.87;87.67
34237;BME280;20501;45.956;13.632;2024-01-25T01:10:49;101455.47;;;6.07;87.03
34237;BME280;20501;45.956;13.632;2024-01-25T01:13:14;101441.06;;;6.24;85.34
34237;BME280;20501;45.956;13.632;2024-01-25T01:15:39;101414.00;;;6.13;85.89
34237;BME280;20501;45.956;13.632;2024-01-25T01:18:05;101421.13;;;6.28;84.95
34237;BME280;20501;45.956;13.632;2024-01-25T01:20:30;101434.22;;;6.49;83.74
34237;BME280;20501;45.956;13.632;2024-01-25T01:22:56;101413.28;;;6.40;83.72
34237;BME280;20501;45.956;13.632;2024-01-25T01:25:21;101404.59;;;6.50;83.62
34237;BME280;20501;45.956;13.632;2024-01-25T01:27:47;101403.22;;;6.43;83.65
34237;BME280;20501;45.956;13.632;2024-01-25T01:30:13;101397.19;;;6.40;83.59
34237;BME280;20501;45.956;13.632;2024-01-25T01:32:38;101409.41;;;6.60;82.88
34237;BME280;20501;45.956;13.632;2024-01-25T01:35:04;101409.50;;;6.58;83.20
34237;BME280;20501;45.956;13.632;2024-01-25T01:37:29;101415.06;;;6.55;83.39
34237;BME280;20501;45.956;13.632;2024-01-25T01:39:55;101408.47;;;6.30;84.61
34237;BME280;20501;45.956;13.632;2024-01-25T01:42:21;101417.63;;;6.42;84.48
34237;BME280;20501;45.956;13.632;2024-01-25T01:44:49;101406.78;;;6.44;83.88
34237;BME280;20501;45.956;13.632;2024-01-25T01:47:15;101378.28;;;6.27;84.47
34237;BME280;20501;45.956;13.632;2024-01-25T01:49:41;101420.00;;;6.32;84.45
34237;BME280;20501;45.956;13.632;2024-01-25T01:52:06;101429.63;;;6.51;82.90
34237;BME280;20501;45.956;13.632;2024-01-25T01:54:33;101419.03;;;6.33;83.68
34237;BME280;20501;45.956;13.632;2024-01-25T01:56:59;101405.63;;;6.48;82.97
34237;BME280;20501;45.956;13.632;2024-01-25T01:59:24;101428.66;;;6.52;82.86
34237;BME280;20501;45.956;13.632;2024-01-25T02:01:51;101417.13;;;6.35;83.40
34237;BME280;20501;45.956;13.632;2024-01-25T02:04:17;101378.41;;;6.25;83.71
34237;BME280;20501;45.956;13.632;2024-01-25T02:06:42;101380.31;;;6.38;83.81
34237;BME280;20501;45.956;13.632;2024-01-25T02:09:08;101404.97;;;6.44;83.54
34237;BME280;20501;45.956;13.632;2024-01-25T02:11:35;101376.47;;;6.27;84.13
34237;BME280;20501;45.956;13.632;2024-01-25T02:14:00;101368.50;;;6.26;84.53
34237;BME280;20501;45.956;13.632;2024-01-25T02:16:26;101380.06;;;6.42;83.89
34237;BME280;20501;45.956;13.632;2024-01-25T02:18:51;101378.22;;;6.43;82.84
34237;BME280;20501;45.956;13.632;2024-01-25T02:21:19;101381.00;;;6.41;83.27
34237;BME280;20501;45.956;13.632;2024-01-25T02:23:45;101381.72;;;6.14;84.18
34237;BME280;20501;45.956;13.632;2024-01-25T02:26:10;101373.41;;;6.33;83.85
34237;BME280;20501;45.956;13.632;2024-01-25T02:28:35;101380.44;;;6.50;82.61
34237;BME280;20501;45.956;13.632;2024-01-25T02:31:02;101394.91;;;6.48;83.64
34237;BME280;20501;45.956;13.632;2024-01-25T02:33:28;101412.06;;;6.45;82.77
34237;BME280;20501;45.956;13.632;2024-01-25T02:35:53;101407.84;;;6.56;81.99
34237;BME280;20501;45.956;13.632;2024-01-25T02:38:18;101391.53;;;6.44;82.15
34237;BME280;20501;45.956;13.632;2024-01-25T02:40:44;101392.81;;;6.53;81.46
34237;BME280;20501;45.956;13.632;2024-01-25T02:43:09;101397.63;;;6.77;80.11
34237;BME280;20501;45.956;13.632;2024-01-25T02:45:35;101387.19;;;6.72;80.23
34237;BME280;20501;45.956;13.632;2024-01-25T02:48:00;101376.72;;;6.68;80.77
34237;BME280;20501;45.956;13.632;2024-01-25T02:50:27;101333.19;;;6.77;80.41
34237;BME280;20501;45.956;13.632;2024-01-25T02:52:52;101323.94;;;6.81;81.15
34237;BME280;20501;45.956;13.632;2024-01-25T02:55:19;101336.81;;;6.90;79.13
34237;BME280;20501;45.956;13.632;2024-01-25T02:57:44;101331.03;;;6.96;78.35
34237;BME280;20501;45.956;13.632;2024-01-25T03:00:10;101320.81;;;6.74;78.60
34237;BME280;20501;45.956;13.632;2024-01-25T03:02:36;101332.59;;;6.57;79.63
34237;BME280;20501;45.956;13.632;2024-01-25T03:05:01;101354.00;;;6.73;79.27
34237;BME280;20501;45.956;13.632;2024-01-25T03:07:27;101395.72;;;6.79;80.00
34237;BME280;20501;45.956;13.632;2024-01-25T03:09:52;101382.09;;;6.68;80.28
34237;BME280;20501;45.956;13.632;2024-01-25T03:12:18;101370.00;;;6.46;81.70
34237;BME280;20501;45.956;13.632;2024-01-25T03:14:44;101378.84;;;6.32;83.25
34237;BME280;20501;45.956;13.632;2024-01-25T03:17:10;101360.66;;;6.37;83.32
34237;BME280;20501;45.956;13.632;2024-01-25T03:19:37;101358.78;;;6.68;82.45
34237;BME280;20501;45.956;13.632;2024-01-25T03:22:03;101358.88;;;6.52;83.22
34237;BME280;20501;45.956;13.632;2024-01-25T03:24:28;101351.00;;;6.49;83.20
34237;BME280;20501;45.956;13.632;2024-01-25T03:26:53;101371.13;;;6.42;84.08
34237;BME280;20501;45.956;13.632;2024-01-25T03:29:19;101358.00;;;6.52;83.19
34237;BME280;20501;45.956;13.632;2024-01-25T03:31:45;101349.88;;;6.68;82.47
34237;BME280;20501;45.956;13.632;2024-01-25T03:34:10;101329.41;;;6.65;81.11
34237;BME280;20501;45.956;13.632;2024-01-25T03:36:35;101331.56;;;6.74;80.59
34237;BME280;20501;45.956;13.632;2024-01-25T03:39:01;101321.78;;;6.73;80.22
34237;BME280;20501;45.956;13.632;2024-01-25T03:41:28;101324.53;;;6.72;80.05
34237;BME280;20501;45.956;13.632;2024-01-25T03:43:54;101331.81;;;6.84;79.87
34237;BME280;20501;45.956;13.632;2024-01-25T03:46:20;101337.38;;;6.81;79.30
34237;BME280;20501;45.956;13.632;2024-01-25T03:48:45;101336.81;;;6.90;79.45
34237;BME280;20501;45.956;13.632;2024-01-25T03:51:11;101323.75;;;6.84;78.78
34237;BME280;20501;45.956;13.632;2024-01-25T03:53:36;101309.34;;;7.00;78.59
34237;BME280;20501;45.956;13.632;2024-01-25T03:56:02;101316.84;;;6.94;78.72
34237;BME280;20501;45.956;13.632;2024-01-25T03:58:28;101327.88;;;7.04;78.44
34237;BME280;20501;45.956;13.632;2024-01-25T04:00:53;101338.38;;;7.07;78.45
34237;BME280;20501;45.956;13.632;2024-01-25T04:03:19;101334.84;;;7.07;77.38
34237;BME280;20501;45.956;13.632;2024-01-25T04:05:44;101340.06;;;6.95;77.79
34237;BME280;20501;45.956;13.632;2024-01-25T04:08:10;101319.53;;;6.94;78.07
34237;BME280;20501;45.956;13.632;2024-01-25T04:10:35;101319.03;;;6.88;78.41
34237;BME280;20501;45.956;13.632;2024-01-25T04:13:01;101320.00;;;6.87;78.85
34237;BME280;20501;45.956;13.632;2024-01-25T04:15:27;101318.13;;;7.16;78.23
34237;BME280;20501;45.956;13.632;2024-01-25T04:17:52;101316.16;;;7.05;78.29
34237;BME280;20501;45.956;13.632;2024-01-25T04:20:21;101301.31;;;6.85;78.03
34237;BME280;20501;45.956;13.632;2024-01-25T04:22:47;101285.59;;;6.64;80.11
34237;BME280;20501;45.956;13.632;2024-01-25T04:25:13;101304.03;;;6.56;81.77
34237;BME280;20501;45.956;13.632;2024-01-25T04:27:38;101330.31;;;6.80;80.80
34237;BME280;20501;45.956;13.632;2024-01-25T04:30:05;101335.47;;;6.83;80.44
34237;BME280;20501;45.956;13.632;2024-01-25T04:32:30;101321.38;;;6.65;81.03
34237;BME280;20501;45.956;13.632;2024-01-25T04:34:56;101332.31;;;6.62;81.99
34237;BME280;20501;45.956;13.632;2024-01-25T04:37:21;101349.78;;;6.84;78.94
34237;BME280;20501;45.956;13.632;2024-01-25T04:39:48;101343.88;;;6.91;77.72
34237;BME280;20501;45.956;13.632;2024-01-25T04:42:13;101334.59;;;6.82;77.94
34237;BME280;20501;45.956;13.632;2024-01-25T04:44:38;101319.66;;;6.64;79.42
34237;BME280;20501;45.956;13.632;2024-01-25T04:47:04;101321.66;;;6.75;78.38
34237;BME280;20501;45.956;13.632;2024-01-25T04:49:29;101330.13;;;6.69;77.86
34237;BME280;20501;45.956;13.632;2024-01-25T04:51:55;101346.13;;;6.70;77.97
34237;BME280;20501;45.956;13.632;2024-01-25T04:54:20;101356.09;;;6.82;77.57
34237;BME280;20501;45.956;13.632;2024-01-25T04:56:45;101345.34;;;6.82;78.00
34237;BME280;20501;45.956;13.632;2024-01-25T04:59:11;101345.72;;;6.76;78.31
34237;BME280;20501;45.956;13.632;2024-01-25T05:01:36;101340.06;;;6.81;77.69
34237;BME280;20501;45.956;13.632;2024-01-25T05:04:02;101352.53;;;6.82;77.34
34237;BME280;20501;45.956;13.632;2024-01-25T05:06:28;101346.78;;;6.88;77.19
34237;BME280;20501;45.956;13.632;2024-01-25T05:08:54;101327.03;;;6.89;77.29
34237;BME280;20501;45.956;13.632;2024-01-25T05:11:19;101318.31;;;7.13;76.64
34237;BME280;20501;45.956;13.632;2024-01-25T05:13:45;101303.38;;;7.09;77.02
34237;BME280;20501;45.956;13.632;2024-01-25T05:16:11;101314.38;;;7.19;77.47
34237;BME280;20501;45.956;13.632;2024-01-25T05:18:36;101342.38;;;7.02;76.45
34237;BME280;20501;45.956;13.632;2024-01-25T05:21:02;101322.31;;;6.78;77.02
34237;BME280;20501;45.956;13.632;2024-01-25T05:23:27;101326.06;;;6.90;76.52
34237;BME280;20501;45.956;13.632;2024-01-25T05:25:53;101367.41;;;6.73;77.37
34237;BME280;20501;45.956;13.632;2024-01-25T05:28:18;101357.16;;;6.80;77.29
34237;BME280;20501;45.956;13.632;2024-01-25T05:30:44;101322.91;;;6.69;77.43
34237;BME280;20501;45.956;13.632;2024-01-25T05:33:09;101318.22;;;6.58;78.24
34237;BME280;20501;45.956;13.632;2024-01-25T05:35:35;101357.91;;;6.82;77.56
34237;BME280;20501;45.956;13.632;2024-01-25T05:38:00;101338.69;;;7.03;77.61
34237;BME280;20501;45.956;13.632;2024-01-25T05:40:26;101345.78;;;7.04;77.34
34237;BME280;20501;45.956;13.632;2024-01-25T05:42:51;101352.63;;;6.95;76.78
34237;BME280;20501;45.956;13.632;2024-01-25T05:45:17;101345.53;;;6.79;77.65
34237;BME280;20501;45.956;13.632;2024-01-25T05:47:45;101324.75;;;6.69;78.27
34237;BME280;20501;45.956;13.632;2024-01-25T05:50:10;101320.88;;;6.73;77.80
34237;BME280;20501;45.956;13.632;2024-01-25T05:52:36;101331.44;;;6.90;77.92
34237;BME280;20501;45.956;13.632;2024-01-25T05:55:05;101347.34;;;7.08;77.89
34237;BME280;20501;45.956;13.632;2024-01-25T05:57:31;101324.72;;;6.97;78.12
34237;BME280;20501;45.956;13.632;2024-01-25T05:59:57;101313.50;;;6.76;80.07
34237;BME280;20501;45.956;13.632;2024-01-25T06:02:23;101326.84;;;6.78;81.86
34237;BME280;20501;45.956;13.632;2024-01-25T06:04:48;101346.97;;;6.71;82.86
34237;BME280;20501;45.956;13.632;2024-01-25T06:07:14;101347.75;;;6.58;84.47
34237;BME280;20501;45.956;13.632;2024-01-25T06:09:39;101356.84;;;6.41;86.59
34237;BME280;20501;45.956;13.632;2024-01-25T06:12:05;101359.94;;;6.64;85.67
34237;BME280;20501;45.956;13.632;2024-01-25T06:14:30;101344.09;;;6.59;85.79
34237;BME280;20501;45.956;13.632;2024-01-25T06:16:56;101341.28;;;6.32;87.18
34237;BME280;20501;45.956;13.632;2024-01-25T06:19:21;101357.88;;;6.39;87.99
34237;BME280;20501;45.956;13.632;2024-01-25T06:21:47;101378.25;;;6.57;86.79
34237;BME280;20501;45.956;13.632;2024-01-25T06:24:12;101367.88;;;6.51;87.80
34237;BME280;20501;45.956;13.632;2024-01-25T06:26:38;101351.41;;;6.57;83.76
34237;BME280;20501;45.956;13.632;2024-01-25T06:29:03;101347.75;;;6.73;82.06
34237;BME280;20501;45.956;13.632;2024-01-25T06:31:29;101372.88;;;6.86;80.48
34237;BME280;20501;45.956;13.632;2024-01-25T06:33:54;101387.94;;;6.74;81.10
34237;BME280;20501;45.956;13.632;2024-01-25T06:36:20;101393.41;;;6.87;80.94
34237;BME280;20501;45.956;13.632;2024-01-25T06:38:45;101379.50;;;6.95;81.05
34237;BME280;20501;45.956;13.632;2024-01-25T06:41:11;101374.41;;;6.90;80.98
34237;BME280;20501;45.956;13.632;2024-01-25T06:43:36;101390.72;;;6.87;80.57
34237;BME280;20501;45.956;13.632;2024-01-25T06:46:02;101395.22;;;6.87;80.34
34237;BME280;20501;45.956;13.632;2024-01-25T06:48:28;101383.03;;;6.95;80.80
34237;BME280;20501;45.956;13.632;2024-01-25T06:50:53;101375.84;;;6.81;80.90
34237;BME280;20501;45.956;13.632;2024-01-25T06:53:19;101398.75;;;6.73;80.76
34237;BME280;20501;45.956;13.632;2024-01-25T06:55:44;101390.91;;;6.84;80.53
34237;BME280;20501;45.956;13.632;2024-01-25T06:58:10;101360.22;;;6.88;81.01
34237;BME280;20501;45.956;13.632;2024-01-25T07:00:35;101383.63;;;6.86;81.47
34237;BME280;20501;45.956;13.632;2024-01-25T07:03:01;101399.16;;;6.81;82.78
34237;BME280;20501;45.956;13.632;2024-01-25T07:05:26;101379.38;;;6.82;83.73
34237;BME280;20501;45.956;13.632;2024-01-25T07:07:52;101378.16;;;6.73;86.15
34237;BME280;20501;45.956;13.632;2024-01-25T07:10:18;101378.66;;;6.80;86.63
34237;BME280;20501;45.956;13.632;2024-01-25T07:12:43;101397.91;;;7.01;86.40
34237;BME280;20501;45.956;13.632;2024-01-25T07:15:09;101399.81;;;6.70;88.79
34237;BME280;20501;45.956;13.632;2024-01-25T07:17:35;101379.00;;;6.45;91.63
34237;BME280;20501;45.956;13.632;2024-01-25T07:20:00;101380.53;;;6.49;90.82
34237;BME280;20501;45.956;13.632;2024-01-25T07:22:26;101383.13;;;6.50;91.59
34237;BME280;20501;45.956;13.632;2024-01-25T07:24:51;101395.31;;;6.71;91.31
34237;BME280;20501;45.956;13.632;2024-01-25T07:27:16;101382.84;;;6.55;91.02
34237;BME280;20501;45.956;13.632;2024-01-25T07:29:45;101383.53;;;6.73;88.08
34237;BME280;20501;45.956;13.632;2024-01-25T07:32:11;101400.97;;;6.66;86.06
34237;BME280;20501;45.956;13.632;2024-01-25T07:34:37;101414.91;;;6.87;84.75
34237;BME280;20501;45.956;13.632;2024-01-25T07:37:03;101417.59;;;6.87;83.76
34237;BME280;20501;45.956;13.632;2024-01-25T07:39:28;101418.53;;;6.86;82.88
34237;BME280;20501;45.956;13.632;2024-01-25T07:41:54;101407.41;;;6.92;82.25
34237;BME280;20501;45.956;13.632;2024-01-25T07:44:19;101400.22;;;6.78;82.97
34237;BME280;20501;45.956;13.632;2024-01-25T07:46:45;101404.81;;;6.91;81.25
34237;BME280;20501;45.956;13.632;2024-01-25T07:49:10;101404.72;;;6.92;82.23
34237;BME280;20501;45.956;13.632;2024-01-25T07:51:35;101407.31;;;6.94;81.75
34237;BME280;20501;45.956;13.632;2024-01-25T07:54:01;101417.47;;;7.03;81.88
34237;BME280;20501;45.956;13.632;2024-01-25T07:56:27;101406.16;;;7.12;81.94
34237;BME280;20501;45.956;13.632;2024-01-25T07:58:53;101408.25;;;7.22;80.53
34237;BME280;20501;45.956;13.632;2024-01-25T08:01:18;101407.19;;;7.24;79.98
34237;BME280;20501;45.956;13.632;2024-01-25T08:03:44;101418.63;;;7.28;81.33
34237;BME280;20501;45.956;13.632;2024-01-25T08:06:10;101430.03;;;7.32;80.57
34237;BME280;20501;45.956;13.632;2024-01-25T08:08:36;101425.78;;;7.42;79.98
34237;BME280;20501;45.956;13.632;2024-01-25T08:11:02;101437.50;;;7.55;81.65
34237;BME280;20501;45.956;13.632;2024-01-25T08:13:29;101440.72;;;7.61;82.25
34237;BME280;20501;45.956;13.632;2024-01-25T08:15:56;101435.84;;;7.53;79.52
34237;BME280;20501;45.956;13.632;2024-01-25T08:18:21;101433.88;;;7.42;79.89
34237;BME280;20501;45.956;13.632;2024-01-25T08:20:48;101439.00;;;7.59;79.11
34237;BME280;20501;45.956;13.632;2024-01-25T08:23:14;101448.19;;;7.70;77.88
34237;BME280;20501;45.956;13.632;2024-01-25T08:25:40;101435.38;;;7.88;77.12
34237;BME280;20501;45.956;13.632;2024-01-25T08:28:05;101431.25;;;8.10;76.67
34237;BME280;20501;45.956;13.632;2024-01-25T08:30:31;101442.41;;;8.44;74.18
34237;BME280;20501;45.956;13.632;2024-01-25T08:32:56;101445.59;;;8.50;73.60
34237;BME280;20501;45.956;13.632;2024-01-25T08:35:22;101451.00;;;8.36;74.74
34237;BME280;20501;45.956;13.632;2024-01-25T08:37:48;101449.06;;;8.25;75.77
34237;BME280;20501;45.956;13.632;2024-01-25T08:40:14;101444.19;;;8.17;77.64
34237;BME280;20501;45.956;13.632;2024-01-25T08:42:40;101448.19;;;8.25;77.60
34237;BME280;20501;45.956;13.632;2024-01-25T08:45:06;101444.31;;;8.29;77.84
34237;BME280;20501;45.956;13.632;2024-01-25T08:47:37;101445.25;;;8.15;80.50
34237;BME280;20501;45.956;13.632;2024-01-25T08:50:02;101458.56;;;8.31;81.58
34237;BME280;20501;45.956;13.632;2024-01-25T08:52:29;101451.06;;;8.21;80.55
34237;BME280;20501;45.956;13.632;2024-01-25T08:54:54;101467.94;;;8.38;76.68
34237;BME280;20501;45.956;13.632;2024-01-25T08:57:19;101448.50;;;8.20;77.16
34237;BME280;20501;45.956;13.632;2024-01-25T08:59:45;101450.25;;;8.34;76.75
34237;BME280;20501;45.956;13.632;2024-01-25T09:02:11;101460.00;;;8.09;81.59
34237;BME280;20501;45.956;13.632;2024-01-25T09:04:36;101457.56;;;8.04;83.71
34237;BME280;20501;45.956;13.632;2024-01-25T09:07:02;101453.50;;;7.99;84.50
34237;BME280;20501;45.956;13.632;2024-01-25T09:09:28;101456.56;;;7.93;85.04
34237;BME280;20501;45.956;13.632;2024-01-25T09:11:53;101456.69;;;8.18;84.05
34237;BME280;20501;45.956;13.632;2024-01-25T09:14:19;101476.00;;;8.38;83.79
34237;BME280;20501;45.956;13.632;2024-01-25T09:16:44;101479.63;;;8.24;84.38
34237;BME280;20501;45.956;13.632;2024-01-25T09:19:10;101487.28;;;8.30;84.54
34237;BME280;20501;45.956;13.632;2024-01-25T09:21:38;101491.56;;;8.47;83.83
34237;BME280;20501;45.956;13.632;2024-01-25T09:24:04;101496.75;;;8.50;83.58
34237;BME280;20501;45.956;13.632;2024-01-25T09:26:30;101496.25;;;8.58;82.23
34237;BME280;20501;45.956;13.632;2024-01-25T09:28:55;101487.28;;;8.58;81.94
34237;BME280;20501;45.956;13.632;2024-01-25T09:31:21;101485.22;;;8.48;79.92
34237;BME280;20501;45.956;13.632;2024-01-25T09:33:46;101481.72;;;8.46;76.53
34237;BME280;20501;45.956;13.632;2024-01-25T09:36:11;101491.38;;;8.50;76.63
34237;BME280;20501;45.956;13.632;2024-01-25T09:38:37;101485.50;;;8.44;74.96
34237;BME280;20501;45.956;13.632;2024-01-25T09:41:02;101496.53;;;8.54;75.37
34237;BME280;20501;45.956;13.632;2024-01-25T09:43:28;101505.63;;;8.91;76.31
34237;BME280;20501;45.956;13.632;2024-01-25T09:45:54;101506.53;;;9.18;76.04
34237;BME280;20501;45.956;13.632;2024-01-25T09:48:22;101512.47;;;9.73;74.48
34237;BME280;20501;45.956;13.632;2024-01-25T09:50:48;101515.06;;;9.74;74.23
34237;BME280;20501;45.956;13.632;2024-01-25T09:53:22;101515.47;;;10.18;71.57
34237;BME280;20501;45.956;13.632;2024-01-25T09:58:19;101519.16;;;10.42;70.42
34237;BME280;20501;45.956;13.632;2024-01-25T10:00:45;101526.06;;;10.33;71.94
34237;BME280;20501;45.956;13.632;2024-01-25T10:03:10;101525.78;;;10.73;69.11
34237;BME280;20501;45.956;13.632;2024-01-25T10:05:36;101522.75;;;10.53;68.54
34237;BME280;20501;45.956;13.632;2024-01-25T10:08:01;101520.66;;;10.33;70.24
34237;BME280;20501;45.956;13.632;2024-01-25T10:10:27;101522.25;;;10.24;71.22
34237;BME280;20501;45.956;13.632;2024-01-25T10:12:57;101524.75;;;10.14;73.36
34237;BME280;20501;45.956;13.632;2024-01-25T10:15:23;101523.09;;;10.25;72.04
34237;BME280;20501;45.956;13.632;2024-01-25T10:17:49;101524.03;;;10.36;70.12
34237;BME280;20501;45.956;13.632;2024-01-25T10:20:15;101525.34;;;10.55;67.43
34237;BME280;20501;45.956;13.632;2024-01-25T10:22:42;101522.97;;;10.26;68.18
34237;BME280;20501;45.956;13.632;2024-01-25T10:25:14;101517.19;;;10.19;68.32
34237;BME280;20501;45.956;13.632;2024-01-25T10:27:40;101521.84;;;10.17;67.66
34237;BME280;20501;45.956;13.632;2024-01-25T10:30:09;101516.56;;;9.79;69.13
34237;BME280;20501;45.956;13.632;2024-01-25T10:32:35;101502.84;;;9.82;69.31
34237;BME280;20501;45.956;13.632;2024-01-25T10:35:01;101501.69;;;9.73;69.36
34237;BME280;20501;45.956;13.632;2024-01-25T10:37:27;101506.00;;;10.00;69.00
34237;BME280;20501;45.956;13.632;2024-01-25T10:39:55;101512.13;;;10.15;68.45
34237;BME280;20501;45.956;13.632;2024-01-25T10:42:21;101513.53;;;10.32;68.42
34237;BME280;20501;45.956;13.632;2024-01-25T10:44:46;101513.31;;;10.59;66.58
34237;BME280;20501;45.956;13.632;2024-01-25T10:47:12;101505.25;;;10.71;64.99
34237;BME280;20501;45.956;13.632;2024-01-25T10:49:37;101502.59;;;10.93;64.05
34237;BME280;20501;45.956;13.632;2024-01-25T10:52:05;101510.16;;;11.24;64.70
34237;BME280;20501;45.956;13.632;2024-01-25T10:54:31;101504.81;;;12.02;63.45
34237;BME280;20501;45.956;13.632;2024-01-25T10:56:58;101502.94;;;12.46;61.74
34237;BME280;20501;45.956;13.632;2024-01-25T10:59:24;101495.88;;;12.76;59.77
34237;BME280;20501;45.956;13.632;2024-01-25T11:01:51;101504.34;;;12.83;59.55
34237;BME280;20501;45.956;13.632;2024-01-25T11:04:17;101504.28;;;12.52;61.01
34237;BME280;20501;45.956;13.632;2024-01-25T11:06:46;101496.69;;;12.67;60.69
34237;BME280;20501;45.956;13.632;2024-01-25T11:09:20;101493.63;;;13.03;59.44
34237;BME280;20501;45.956;13.632;2024-01-25T11:11:49;101499.22;;;13.32;60.17
34237;BME280;20501;45.956;13.632;2024-01-25T11:14:15;101492.38;;;13.38;59.04
34237;BME280;20501;45.956;13.632;2024-01-25T11:16:42;101494.31;;;13.47;57.97
34237;BME280;20501;45.956;13.632;2024-01-25T11:19:19;101508.56;;;13.70;57.93
34237;BME280;20501;45.956;13.632;2024-01-25T11:21:46;101503.66;;;13.64;57.89
34237;BME280;20501;45.956;13.632;2024-01-25T11:26:45;101495.75;;;14.02;56.45
34237;BME280;20501;45.956;13.632;2024-01-25T11:29:16;101484.63;;;13.54;56.28
34237;BME280;20501;45.956;13.632;2024-01-25T11:31:46;101482.19;;;13.61;56.35
34237;BME280;20501;45.956;13.632;2024-01-25T11:34:12;101478.38;;;13.64;56.26
34237;BME280;20501;45.956;13.632;2024-01-25T11:36:38;101464.44;;;13.98;56.40
34237;BME280;20501;45.956;13.632;2024-01-25T11:39:04;101461.03;;;14.25;55.20
34237;BME280;20501;45.956;13.632;2024-01-25T11:41:31;101450.72;;;14.38;55.45
34237;BME280;20501;45.956;13.632;2024-01-25T11:43:57;101451.16;;;14.24;55.20
34237;BME280;20501;45.956;13.632;2024-01-25T11:46:23;101457.00;;;14.59;54.84
34237;BME280;20501;45.956;13.632;2024-01-25T11:48:50;101453.28;;;14.79;54.14
34237;BME280;20501;45.956;13.632;2024-01-25T11:51:15;101457.91;;;15.16;52.64
34237;BME280;20501;45.956;13.632;2024-01-25T11:53:41;101451.75;;;15.42;52.33
34237;BME280;20501;45.956;13.632;2024-01-25T11:56:09;101449.53;;;15.56;52.04
34237;BME280;20501;45.956;13.632;2024-01-25T11:58:37;101451.56;;;15.82;51.12
34237;BME280;20501;45.956;13.632;2024-01-25T12:01:03;101445.22;;;15.81;50.86
34237;BME280;20501;45.956;13.632;2024-01-25T12:03:33;101456.41;;;15.78;51.85
34237;BME280;20501;45.956;13.632;2024-01-25T12:05:59;101465.69;;;16.13;50.78
34237;BME280;20501;45.956;13.632;2024-01-25T12:08:25;101454.63;;;16.15;50.39
34237;BME280;20501;45.956;13.632;2024-01-25T12:11:02;101447.25;;;16.69;49.14
34237;BME280;20501;45.956;13.632;2024-01-25T12:13:28;101439.97;;;16.34;48.65
34237;BME280;20501;45.956;13.632;2024-01-25T12:15:56;101434.38;;;16.35;49.81
34237;BME280;20501;45.956;13.632;2024-01-25T12:18:22;101441.38;;;16.02;49.36
34237;BME280;20501;45.956;13.632;2024-01-25T12:20:47;101438.34;;;16.05;49.89
34237;BME280;20501;45.956;13.632;2024-01-25T12:23:13;101437.69;;;15.75;50.52
34237;BME280;20501;45.956;13.632;2024-01-25T12:25:40;101436.09;;;15.72;50.87
34237;BME280;20501;45.956;13.632;2024-01-25T12:28:06;101431.84;;;15.42;50.90
34237;BME280;20501;45.956;13.632;2024-01-25T12:30:31;101432.56;;;16.26;49.16
34237;BME280;20501;45.956;13.632;2024-01-25T12:32:57;101428.22;;;16.33;48.65
34237;BME280;20501;45.956;13.632;2024-01-25T12:35:23;101431.97;;;16.32;48.53
34237;BME280;20501;45.956;13.632;2024-01-25T12:37:49;101432.97;;;16.13;49.51
34237;BME280;20501;45.956;13.632;2024-01-25T12:40:14;101430.31;;;16.21;49.50
34237;BME280;20501;45.956;13.632;2024-01-25T12:42:40;101430.56;;;15.92;50.11
34237;BME280;20501;45.956;13.632;2024-01-25T12:45:05;101431.66;;;15.53;50.92